This is the latest recevied weather packets stored in our database for station/object WC4PEM-1. If no packets are shown the sender has not sent any weather packets the latest 10 day(s).
| Time | Temp. | Humidity | Pressure | Rain* | Wind** | Luminosity | Snow |
|---|---|---|---|---|---|---|---|
| 1777324425 | 27.78° C | 60% | 1014.7 hPa | 0 mm | - | 123 W/m² | - |
| 1777324125 | 27.78° C | 61% | 1014.7 hPa | 0 mm | - | 183 W/m² | - |
| 1777323825 | 27.78° C | 63% | 1014.7 hPa | 0 mm | - | 540 W/m² | - |
| 1777323525 | 27.78° C | 63% | 1014.7 hPa | 0 mm | - | 664 W/m² | - |
| 1777323225 | 27.22° C | 63% | 1014.7 hPa | 0 mm | - | 179 W/m² | - |
| 1777322625 | 27.22° C | 65% | 1014.7 hPa | 0 mm | - | 107 W/m² | - |
| 1777322325 | 27.78° C | 63% | 1014.6 hPa | 0 mm | - | 86 W/m² | - |
| 1777322025 | 28.33° C | 61% | 1014.5 hPa | 0 mm | - | 97 W/m² | - |
| 1777321725 | 28.89° C | 58% | 1014.4 hPa | 0 mm | - | 156 W/m² | - |
| 1777321425 | 28.89° C | 57% | 1014.3 hPa | 0 mm | - | 220 W/m² | - |
| 1777321125 | 28.89° C | 57% | 1014.3 hPa | 0 mm | - | 253 W/m² | - |
| 1777320525 | 28.89° C | 57% | 1014.3 hPa | 0 mm | - | 835 W/m² | - |
| 1777320225 | 28.89° C | 58% | 1014.4 hPa | 0 mm | - | 269 W/m² | - |
| 1777319925 | 29.44° C | 59% | 1014.4 hPa | 0 mm | - | 851 W/m² | - |
| 1777319625 | 30° C | 57% | 1014.4 hPa | 0 mm | - | 223 W/m² | - |
| 1777319325 | 30° C | 55% | 1014.4 hPa | 0 mm | - | 297 W/m² | - |
| 1777319027 | 29.44° C | 57% | 1014.4 hPa | 0 mm | - | 886 W/m² | - |
| 1777318725 | 29.44° C | 57% | 1014.5 hPa | 0 mm | - | 865 W/m² | - |
| 1777318425 | 29.44° C | 55% | 1014.7 hPa | 0 mm | - | 160 W/m² | - |
| 1777318125 | 30° C | 56% | 1014.6 hPa | 0 mm | - | 895 W/m² | - |
| 1777317825 | 29.44° C | 59% | 1014.6 hPa | 0 mm | - | 875 W/m² | - |
| 1777317525 | 28.33° C | 60% | 1014.7 hPa | 0 mm | - | 338 W/m² | - |
| 1777317225 | 29.44° C | 56% | 1014.7 hPa | 0 mm | - | 163 W/m² | - |
| 1777316925 | 30° C | 56% | 1014.7 hPa | 0 mm | - | 928 W/m² | - |
| 1777316625 | 30° C | 56% | 1014.8 hPa | 0 mm | - | 960 W/m² | - |
* Rain latest hour (hover to see other rain measurements)
** Current wind speed in m/s (hover to see current wind gust speed)